Time;durP1;ratioP1;P1;durP2;ratioP2;P2;SDS_P1;SDS_P2;PMS_P1;PMS_P2;Temp;Humidity;BMP_temperature;BMP_pressure;BME280_temperature;BME280_humidity;BME280_pressure;Samples;Min_cycle;Max_cycle;Signal;HPM_P1;HPM_P2
2022/09/08 00:01:40;;;;;;;7.47;3.85;;;22.10;99.90;;;;;;5032272;28;20026;-74
2022/09/08 00:04:06;;;;;;;9.77;5.38;;;22.10;99.90;;;;;;5051290;28;20021;-74
2022/09/08 00:06:32;;;;;;;7.68;3.70;;;22.10;99.90;;;;;;5045094;28;20400;-74
2022/09/08 00:08:59;;;;;;;17.15;4.10;;;21.90;99.90;;;;;;5039246;28;20040;-74
2022/09/08 00:11:28;;;;;;;8.05;4.85;;;21.80;99.90;;;;;;5045011;28;20045;-74
2022/09/08 00:13:58;;;;;;;7.68;4.20;;;21.60;99.90;;;;;;5038318;28;20045;-74
2022/09/08 00:16:24;;;;;;;10.32;3.78;;;21.30;99.90;;;;;;5040881;28;20071;-74
2022/09/08 00:18:51;;;;;;;7.38;3.85;;;21.20;99.90;;;;;;5035287;28;20415;-74
2022/09/08 00:21:20;;;;;;;6.75;3.33;;;21.10;99.90;;;;;;5036492;28;20044;-74
2022/09/08 00:23:47;;;;;;;6.78;3.55;;;21.00;99.90;;;;;;5035196;28;20029;-74
2022/09/08 00:26:12;;;;;;;9.02;3.50;;;21.20;99.90;;;;;;5046137;28;20060;-74
2022/09/08 00:28:38;;;;;;;8.23;3.90;;;21.00;99.90;;;;;;5045294;28;20067;-75
2022/09/08 00:31:05;;;;;;;5.82;3.40;;;20.50;99.90;;;;;;5043413;28;20057;-74
2022/09/08 00:33:32;;;;;;;7.85;4.28;;;20.40;99.90;;;;;;5031385;28;20041;-74
2022/09/08 00:35:58;;;;;;;13.23;4.07;;;20.40;99.90;;;;;;5052610;28;20116;-74
2022/09/08 00:38:24;;;;;;;8.55;4.28;;;20.20;99.90;;;;;;5053068;28;20502;-74
2022/09/08 00:40:51;;;;;;;8.23;4.30;;;20.10;99.90;;;;;;5050295;28;20029;-74
2022/09/08 00:43:36;;;;;;;8.27;4.10;;;20.30;99.90;;;;;;5037019;28;20025;-74
2022/09/08 00:46:08;;;;;;;9.07;4.63;;;20.30;99.90;;;;;;5034481;28;20025;-74
2022/09/08 00:48:40;;;;;;;8.57;4.30;;;20.50;99.90;;;;;;5050415;28;20044;-74
2022/09/08 00:51:06;;;;;;;9.35;4.25;;;20.60;99.90;;;;;;5052916;28;20047;-74
2022/09/08 00:53:33;;;;;;;6.75;4.03;;;20.70;99.90;;;;;;5053846;28;20041;-74
2022/09/08 00:56:05;;;;;;;7.63;4.47;;;20.70;99.90;;;;;;5053241;28;20755;-74
2022/09/08 00:58:33;;;;;;;11.43;5.05;;;20.70;99.90;;;;;;5053246;28;20147;-74
2022/09/08 01:01:00;;;;;;;8.02;4.07;;;20.70;99.90;;;;;;5051731;28;20040;-74
2022/09/08 01:03:26;;;;;;;5.40;3.88;;;20.40;99.90;;;;;;5038647;28;20094;-74
2022/09/08 01:06:19;;;;;;;7.35;4.57;;;20.30;99.90;;;;;;5052843;28;20709;-74
2022/09/08 01:14:50;;;;;;;7.07;4.90;;;20.20;99.90;;;;;;5034469;28;20060;-74
2022/09/08 01:17:24;;;;;;;8.80;4.95;;;19.90;99.90;;;;;;5035118;28;20137;-74
2022/09/08 01:19:51;;;;;;;7.53;4.45;;;20.00;99.90;;;;;;5045488;28;20115;-74
2022/09/08 01:22:59;;;;;;;6.35;3.80;;;20.20;99.90;;;;;;5054085;28;20487;-74
2022/09/08 01:25:43;;;;;;;9.25;4.55;;;20.40;99.90;;;;;;5038754;28;20045;-74
2022/09/08 01:28:22;;;;;;;;;;;20.50;99.90;;;;;;5033126;28;20120;-74
2022/09/08 01:30:49;;;;;;;9.60;4.75;;;20.50;99.90;;;;;;5045246;28;19908;-74
2022/09/08 01:33:16;;;;;;;6.60;4.25;;;20.60;99.90;;;;;;5037141;28;20495;-74
2022/09/08 01:35:43;;;;;;;8.23;4.10;;;20.60;99.90;;;;;;5042033;28;20052;-74
2022/09/08 01:38:10;;;;;;;6.70;3.67;;;20.50;99.90;;;;;;5036819;28;20025;-74
2022/09/08 01:40:38;;;;;;;6.57;3.78;;;20.50;99.90;;;;;;5034939;28;20037;-74
2022/09/08 01:43:08;;;;;;;9.75;5.55;;;20.40;99.90;;;;;;5044516;28;20032;-74
2022/09/08 01:45:37;;;;;;;7.45;4.60;;;20.50;99.90;;;;;;5042669;28;20033;-74
2022/09/08 01:48:04;;;;;;;6.93;4.05;;;20.50;99.90;;;;;;5036602;28;20032;-74
2022/09/08 01:50:30;;;;;;;9.10;5.10;;;20.50;99.90;;;;;;5037668;28;20029;-74
2022/09/08 01:52:56;;;;;;;7.63;4.22;;;20.60;99.90;;;;;;5033727;28;20052;-74
2022/09/08 01:55:21;;;;;;;8.02;3.60;;;20.70;99.90;;;;;;5036849;28;20423;-74
2022/09/08 01:57:47;;;;;;;6.93;3.92;;;20.60;99.90;;;;;;5048634;28;20033;-74
2022/09/08 02:00:13;;;;;;;8.85;4.50;;;20.60;99.90;;;;;;5051807;28;20041;-74
2022/09/08 02:02:39;;;;;;;11.10;5.65;;;20.50;99.90;;;;;;5048582;28;20029;-74
2022/09/08 02:05:05;;;;;;;16.58;5.72;;;20.50;99.90;;;;;;5046066;28;20025;-74
2022/09/08 02:07:32;;;;;;;9.43;4.32;;;20.70;99.90;;;;;;5034484;28;20454;-74
2022/09/08 02:09:58;;;;;;;8.95;4.18;;;20.80;99.90;;;;;;5038989;28;20402;-74
2022/09/08 02:12:24;;;;;;;7.07;3.83;;;20.80;99.90;;;;;;5044194;28;20036;-74
2022/09/08 02:14:49;;;;;;;12.75;5.20;;;20.70;99.90;;;;;;5035126;28;20041;-74
2022/09/08 02:17:15;;;;;;;19.80;5.97;;;20.60;99.90;;;;;;5037406;28;20056;-74
2022/09/08 02:19:41;;;;;;;9.65;6.10;;;20.50;99.90;;;;;;5032744;28;20033;-74
2022/09/08 02:22:06;;;;;;;13.50;5.60;;;20.50;99.90;;;;;;5050061;28;20044;-74
2022/09/08 02:24:33;;;;;;;9.27;4.72;;;20.50;99.90;;;;;;5043852;28;20036;-74
2022/09/08 02:26:59;;;;;;;9.88;4.85;;;20.40;99.90;;;;;;5034363;28;20029;-74
2022/09/08 02:29:25;;;;;;;13.55;6.00;;;20.20;99.90;;;;;;5047764;28;20039;-74
2022/09/08 02:31:50;;;;;;;10.55;6.43;;;20.20;99.90;;;;;;5050402;28;20032;-74
2022/09/08 02:34:16;;;;;;;10.80;6.50;;;20.20;99.90;;;;;;5051252;28;20044;-74
2022/09/08 02:36:42;;;;;;;9.60;5.72;;;20.40;99.90;;;;;;5045699;28;20036;-74
2022/09/08 02:39:16;;;;;;;10.32;7.15;;;20.60;99.90;;;;;;5040970;28;20506;-74
2022/09/08 02:41:41;;;;;;;9.98;6.03;;;20.60;99.90;;;;;;5039196;28;20024;-74
2022/09/08 02:44:09;;;;;;;11.00;5.25;;;20.50;99.90;;;;;;5047522;28;20390;-74
2022/09/08 02:46:35;;;;;;;9.27;6.43;;;20.60;99.90;;;;;;5033652;28;20111;-74
2022/09/08 02:49:00;;;;;;;9.05;4.25;;;20.60;99.90;;;;;;5038829;28;20168;-74
2022/09/08 02:51:26;;;;;;;6.57;3.92;;;20.60;99.90;;;;;;5041144;28;20479;-74
2022/09/08 02:53:56;;;;;;;11.20;5.65;;;20.80;99.90;;;;;;5050564;28;20044;-74
2022/09/08 02:56:22;;;;;;;8.15;4.82;;;20.80;99.90;;;;;;5047357;28;20033;-74
2022/09/08 02:58:48;;;;;;;9.70;4.63;;;20.50;99.90;;;;;;5032608;28;20099;-74
2022/09/08 03:01:13;;;;;;;8.93;5.18;;;20.30;99.90;;;;;;5048214;28;20087;-73
2022/09/08 03:03:39;;;;;;;6.68;5.05;;;20.40;99.90;;;;;;5036019;28;20056;-74
2022/09/08 03:06:05;;;;;;;9.43;5.85;;;20.20;99.90;;;;;;5031438;28;20025;-72
2022/09/08 03:08:31;;;;;;;9.07;5.45;;;20.10;99.90;;;;;;5034186;28;20543;-72
2022/09/08 03:10:57;;;;;;;9.77;5.50;;;19.90;99.90;;;;;;5030878;28;20601;-73
2022/09/08 03:13:23;;;;;;;8.07;4.72;;;19.80;99.90;;;;;;5032562;28;20069;-73
2022/09/08 03:15:49;;;;;;;9.80;4.60;;;19.80;99.90;;;;;;5036620;28;20833;-73
2022/09/08 03:18:15;;;;;;;10.30;4.75;;;19.90;99.90;;;;;;5029167;28;20029;-73
2022/09/08 03:20:42;;;;;;;9.73;6.05;;;20.00;99.90;;;;;;5045355;28;20044;-73
2022/09/08 03:23:13;;;;;;;6.80;4.85;;;20.10;99.90;;;;;;5039750;28;20060;-72
2022/09/08 03:25:39;;;;;;;6.82;4.15;;;19.90;99.90;;;;;;5024100;28;20476;-73
2022/09/08 03:28:05;;;;;;;6.00;4.05;;;19.60;99.90;;;;;;5025801;28;20041;-72
2022/09/08 03:30:31;;;;;;;8.05;3.85;;;19.70;99.90;;;;;;5031381;28;20037;-73
2022/09/08 03:32:57;;;;;;;7.43;3.75;;;19.50;99.90;;;;;;5038104;28;20035;-73
2022/09/08 03:35:23;;;;;;;7.70;3.47;;;19.50;99.90;;;;;;5047382;28;20083;-72
2022/09/08 03:37:49;;;;;;;6.07;2.72;;;19.60;99.90;;;;;;5044771;28;20032;-73
2022/09/08 03:40:16;;;;;;;5.93;2.67;;;19.70;99.90;;;;;;5035854;28;20064;-72
2022/09/08 03:42:43;;;;;;;7.50;3.00;;;19.70;99.90;;;;;;5036730;28;20052;-72
2022/09/08 03:45:13;;;;;;;9.63;3.53;;;19.90;99.90;;;;;;5027458;28;20446;-72
2022/09/08 03:47:39;;;;;;;5.28;3.15;;;19.80;99.90;;;;;;5029506;28;20033;-73
2022/09/08 03:50:06;;;;;;;6.13;3.42;;;19.60;99.90;;;;;;5024883;28;20103;-73
2022/09/08 03:52:31;;;;;;;7.50;4.15;;;19.50;99.90;;;;;;5030298;28;20044;-72
2022/09/08 03:54:57;;;;;;;5.07;3.53;;;19.50;99.90;;;;;;5026476;28;20678;-73
2022/09/08 03:57:28;;;;;;;7.55;3.42;;;19.50;99.90;;;;;;5040920;28;20037;-72
2022/09/08 03:59:56;;;;;;;7.57;3.60;;;19.50;99.90;;;;;;5042315;28;21018;-72
2022/09/08 04:02:22;;;;;;;5.85;3.60;;;19.50;99.90;;;;;;5027043;28;20040;-73
2022/09/08 04:04:53;;;;;;;9.45;4.28;;;19.50;99.90;;;;;;5034816;28;20456;-73
2022/09/08 04:07:20;;;;;;;7.95;4.25;;;19.50;99.90;;;;;;5024410;28;20033;-72
2022/09/08 04:09:46;;;;;;;8.13;3.95;;;19.50;99.90;;;;;;5042817;28;20087;-73
2022/09/08 04:12:14;;;;;;;7.00;3.85;;;19.50;99.90;;;;;;5046961;28;20573;-73
2022/09/08 04:14:40;;;;;;;25.50;7.28;;;19.40;99.90;;;;;;5031745;28;20037;-74
2022/09/08 04:17:06;;;;;;;13.70;4.82;;;19.30;99.90;;;;;;5037215;28;20088;-74
2022/09/08 04:19:32;;;;;;;10.88;5.38;;;18.90;99.90;;;;;;5027921;28;20091;-74
2022/09/08 04:21:58;;;;;;;8.77;4.00;;;19.00;99.90;;;;;;5035928;28;20029;-75
2022/09/08 04:24:23;;;;;;;8.93;5.00;;;19.10;99.90;;;;;;5047428;28;20055;-75
2022/09/08 04:26:49;;;;;;;6.38;3.75;;;19.10;99.90;;;;;;5028438;28;20111;-74
2022/09/08 04:29:16;;;;;;;7.07;3.92;;;19.00;99.90;;;;;;5030104;28;20025;-74
2022/09/08 04:31:42;;;;;;;11.60;4.88;;;19.20;99.90;;;;;;5035715;28;20037;-74
2022/09/08 04:34:08;;;;;;;7.88;4.43;;;19.30;99.90;;;;;;5028078;28;20060;-74
2022/09/08 04:36:34;;;;;;;6.95;4.22;;;19.20;99.90;;;;;;5040267;28;20451;-74
2022/09/08 04:39:00;;;;;;;6.07;4.40;;;18.90;99.90;;;;;;5037079;28;20025;-74
2022/09/08 04:41:28;;;;;;;10.60;5.50;;;19.10;99.90;;;;;;5040195;28;20056;-74
2022/09/08 04:43:55;;;;;;;9.52;6.30;;;19.10;99.90;;;;;;5027107;28;20032;-74
2022/09/08 04:46:21;;;;;;;11.05;5.32;;;19.10;99.90;;;;;;5041788;28;20040;-75
2022/09/08 04:48:47;;;;;;;11.02;5.05;;;19.10;99.90;;;;;;5029427;28;20025;-75
2022/09/08 04:51:16;;;;;;;8.93;5.00;;;18.90;99.90;;;;;;5027350;28;20122;-74
2022/09/08 04:53:42;;;;;;;7.32;4.60;;;18.50;99.90;;;;;;5034499;28;20037;-74
2022/09/08 04:56:09;;;;;;;8.23;4.65;;;18.50;99.90;;;;;;5031264;28;20029;-75
2022/09/08 04:58:37;;;;;;;6.70;4.20;;;18.60;99.90;;;;;;5040745;28;20098;-75
2022/09/08 05:01:13;;;;;;;6.00;3.17;;;18.80;99.90;;;;;;5046906;28;20055;-74
2022/09/08 05:03:38;;;;;;;6.78;3.45;;;18.80;99.90;;;;;;5031825;28;20371;-74
2022/09/08 05:06:15;;;;;;;6.65;3.47;;;19.00;99.90;;;;;;5047245;28;20028;-74
2022/09/08 05:08:44;;;;;;;11.55;4.00;;;18.90;99.90;;;;;;5028386;28;20036;-74
2022/09/08 05:11:09;;;;;;;7.25;3.80;;;19.00;99.90;;;;;;5034868;28;20049;-74
2022/09/08 05:13:36;;;;;;;8.43;4.60;;;19.00;99.90;;;;;;5026358;28;20490;-74
2022/09/08 05:16:07;;;;;;;7.68;4.88;;;19.10;99.90;;;;;;5036916;28;20063;-74
2022/09/08 05:18:33;;;;;;;10.02;5.28;;;18.90;99.90;;;;;;5044662;28;20024;-74
2022/09/08 05:20:59;;;;;;;7.20;5.28;;;19.00;99.90;;;;;;5029575;28;20025;-74
2022/09/08 05:23:25;;;;;;;7.20;4.45;;;19.00;99.90;;;;;;5026926;28;20394;-74
2022/09/08 05:25:59;;;;;;;9.20;5.15;;;19.00;99.90;;;;;;5033038;28;20379;-74
2022/09/08 05:28:27;;;;;;;7.88;4.60;;;18.90;99.90;;;;;;5047098;28;20028;-74
2022/09/08 05:30:53;;;;;;;9.40;5.47;;;18.80;99.90;;;;;;5033445;28;20068;-75
2022/09/08 05:33:20;;;;;;;9.25;5.40;;;18.70;99.90;;;;;;5044205;28;20064;-75
2022/09/08 05:35:46;;;;;;;8.15;5.80;;;18.80;99.90;;;;;;5032794;28;20029;-74
2022/09/08 05:38:12;;;;;;;8.75;5.95;;;18.80;99.90;;;;;;5030286;28;20029;-75
2022/09/08 05:40:37;;;;;;;8.30;5.78;;;18.80;99.90;;;;;;5045394;28;20023;-75
2022/09/08 05:43:03;;;;;;;11.75;5.63;;;18.90;99.90;;;;;;5045393;28;20112;-75
2022/09/08 05:45:30;;;;;;;8.57;6.53;;;18.90;99.90;;;;;;5041952;28;20171;-75
2022/09/08 05:47:55;;;;;;;10.45;5.47;;;18.90;99.90;;;;;;5025854;28;20116;-75
2022/09/08 05:50:21;;;;;;;8.73;6.40;;;18.90;99.90;;;;;;5025980;28;20104;-75
2022/09/08 05:52:47;;;;;;;9.20;6.20;;;18.90;99.90;;;;;;5026664;28;20064;-74
2022/09/08 05:55:13;;;;;;;8.95;5.93;;;18.70;99.90;;;;;;5026153;28;20037;-74
2022/09/08 05:57:39;;;;;;;10.05;6.32;;;18.80;99.90;;;;;;5026179;28;20041;-74
2022/09/08 06:00:07;;;;;;;13.52;6.32;;;18.90;99.90;;;;;;5028731;28;20031;-76
2022/09/08 06:02:33;;;;;;;7.90;5.13;;;18.90;99.90;;;;;;5031025;28;20057;-75
2022/09/08 06:04:58;;;;;;;10.30;5.18;;;18.90;99.90;;;;;;5025875;28;20844;-75
2022/09/08 06:07:25;;;;;;;7.35;5.72;;;18.80;99.90;;;;;;5025470;28;20033;-74
2022/09/08 06:09:51;;;;;;;7.15;5.07;;;18.70;99.90;;;;;;5025767;28;20415;-74
2022/09/08 06:12:17;;;;;;;14.65;5.43;;;18.80;99.90;;;;;;5027244;28;20555;-75
2022/09/08 06:14:42;;;;;;;13.43;5.53;;;18.70;99.90;;;;;;5043502;28;20044;-75
2022/09/08 06:17:09;;;;;;;15.52;6.03;;;18.80;99.90;;;;;;5028644;28;20033;-75
2022/09/08 06:19:35;;;;;;;9.35;4.90;;;18.80;99.90;;;;;;5026046;28;20029;-74
2022/09/08 06:22:01;;;;;;;9.82;4.45;;;18.80;99.90;;;;;;5037020;28;20124;-74
2022/09/08 06:24:27;;;;;;;8.75;4.75;;;18.90;99.90;;;;;;5042132;28;20471;-74
2022/09/08 06:27:08;;;;;;;8.80;4.90;;;18.70;99.90;;;;;;5031944;28;20075;-75
2022/09/08 06:29:50;;;;;;;11.07;4.70;;;18.70;99.90;;;;;;5037409;28;20036;-75
2022/09/08 06:32:30;;;;;;;11.00;4.82;;;18.60;99.90;;;;;;5027716;28;20063;-75
2022/09/08 06:35:30;;;;;;;6.40;3.75;;;18.60;99.90;;;;;;5025336;28;20127;-75
2022/09/08 06:38:01;;;;;;;6.25;3.15;;;18.60;99.90;;;;;;5027383;28;20041;-74
2022/09/08 06:40:27;;;;;;;4.95;2.35;;;18.40;99.90;;;;;;5033203;28;20059;-75
2022/09/08 06:43:01;;;;;;;5.10;2.72;;;18.50;99.90;;;;;;5029337;28;20029;-74
2022/09/08 06:45:33;;;;;;;6.72;2.55;;;18.60;99.90;;;;;;5023660;28;20395;-75
2022/09/08 06:48:24;;;;;;;6.20;2.95;;;18.70;99.90;;;;;;5044899;28;20033;-75
2022/09/08 06:51:18;;;;;;;7.07;3.45;;;18.60;99.90;;;;;;5045439;28;20087;-75
2022/09/08 06:53:53;;;;;;;5.97;3.25;;;18.50;99.90;;;;;;5044072;28;20068;-75
2022/09/08 06:56:34;;;;;;;7.57;3.75;;;18.50;99.90;;;;;;5026085;28;20029;-75
2022/09/08 06:59:35;;;;;;;6.65;3.33;;;18.50;99.90;;;;;;5025736;28;20045;-75
2022/09/08 07:02:07;;;;;;;7.45;4.05;;;18.50;99.90;;;;;;5030713;28;20128;-75
2022/09/08 07:04:47;;;;;;;8.98;3.75;;;18.70;99.90;;;;;;5033008;28;20632;-75
2022/09/08 07:07:22;;;;;;;7.00;3.90;;;18.70;99.90;;;;;;5029779;28;20033;-75
2022/09/08 07:10:07;;;;;;;6.95;3.75;;;18.70;99.90;;;;;;5026793;28;20521;-74
2022/09/08 07:12:49;;;;;;;5.10;3.58;;;18.90;99.90;;;;;;5030889;28;20091;-75
2022/09/08 07:16:04;;;;;;;5.63;3.58;;;18.80;99.90;;;;;;5037743;28;20040;-75
2022/09/08 07:18:46;;;;;;;6.80;3.38;;;18.90;99.90;;;;;;5038452;28;20474;-75
2022/09/08 07:21:19;;;;;;;7.07;3.70;;;18.90;99.90;;;;;;5029919;28;20052;-74
2022/09/08 07:23:46;;;;;;;4.78;3.00;;;19.20;99.90;;;;;;5039230;28;20028;-75
2022/09/08 07:26:19;;;;;;;16.70;3.13;;;19.30;99.90;;;;;;5028582;28;20083;-74
2022/09/08 07:28:49;;;;;;;4.90;2.33;;;19.50;99.90;;;;;;5040505;28;20083;-75
2022/09/08 07:31:24;;;;;;;5.70;2.63;;;19.60;99.90;;;;;;5040251;28;20029;-75
2022/09/08 07:33:57;;;;;;;5.45;2.65;;;19.90;99.90;;;;;;5024215;28;20048;-74
2022/09/08 07:36:37;;;;;;;7.00;3.70;;;19.90;99.90;;;;;;5025306;28;20025;-74
2022/09/08 07:39:21;;;;;;;5.68;3.40;;;19.70;99.90;;;;;;5036670;28;20375;-75
2022/09/08 07:41:53;;;;;;;5.68;3.35;;;19.60;99.90;;;;;;5029746;28;20035;-74
2022/09/08 07:44:20;;;;;;;8.05;3.38;;;19.40;99.90;;;;;;5037682;28;20032;-75
2022/09/08 07:47:17;;;;;;;5.20;2.80;;;19.40;99.90;;;;;;5026233;28;20522;-75
2022/09/08 07:50:17;;;;;;;5.97;3.42;;;19.40;99.90;;;;;;5035578;28;20065;-75
2022/09/08 07:52:55;;;;;;;5.47;3.47;;;19.50;99.90;;;;;;5037788;28;20029;-75
2022/09/08 07:55:32;;;;;;;6.68;3.58;;;19.50;99.90;;;;;;5037258;28;20617;-75
2022/09/08 07:58:13;;;;;;;7.68;4.35;;;19.30;99.90;;;;;;5029482;28;20123;-75
2022/09/08 08:01:01;;;;;;;7.85;4.30;;;19.10;99.90;;;;;;5034667;28;20518;-75
2022/09/08 08:03:36;;;;;;;6.45;3.70;;;19.10;99.90;;;;;;5025085;28;20081;-75
2022/09/08 08:06:18;;;;;;;5.97;3.20;;;18.90;99.90;;;;;;5036382;28;20033;-75
2022/09/08 08:09:15;;;;;;;6.53;3.80;;;18.90;99.90;;;;;;5041485;28;20021;-74
2022/09/08 08:11:53;;;;;;;6.25;3.83;;;19.00;99.90;;;;;;5037291;28;20042;-75
2022/09/08 08:14:44;;;;;;;5.72;3.00;;;19.00;99.90;;;;;;5024952;28;20052;-74
2022/09/08 08:17:13;;;;;;;5.15;3.40;;;19.00;99.90;;;;;;5033602;28;20087;-75
2022/09/08 08:19:57;;;;;;;7.75;3.33;;;18.90;99.90;;;;;;5035876;28;20048;-75
2022/09/08 08:22:26;;;;;;;6.35;3.15;;;18.90;99.90;;;;;;5029926;28;20068;-75
2022/09/08 08:25:04;;;;;;;6.72;3.05;;;18.80;99.90;;;;;;5025533;28;20037;-75
2022/09/08 08:27:44;;;;;;;9.95;4.10;;;18.90;99.90;;;;;;5031347;28;20037;-75
2022/09/08 08:30:21;;;;;;;5.85;3.50;;;19.00;99.90;;;;;;5043045;28;20029;-75
2022/09/08 08:33:08;;;;;;;8.38;3.85;;;19.10;99.90;;;;;;5044225;28;20767;-76
2022/09/08 08:35:51;;;;;;;6.40;3.88;;;19.10;99.90;;;;;;5041735;28;20555;-74
2022/09/08 08:38:22;;;;;;;10.55;4.78;;;19.10;99.90;;;;;;5023547;28;20112;-75
2022/09/08 08:40:57;;;;;;;5.88;3.42;;;19.10;99.90;;;;;;5024870;28;20480;-75
2022/09/08 08:43:25;;;;;;;5.97;3.80;;;19.10;99.90;;;;;;5040179;28;20033;-75
2022/09/08 08:45:54;;;;;;;5.68;2.97;;;19.20;99.90;;;;;;5027137;28;20113;-74
2022/09/08 08:48:55;;;;;;;5.28;3.35;;;19.20;99.90;;;;;;5026424;28;20042;-75
2022/09/08 08:51:53;;;;;;;7.72;4.35;;;19.40;99.90;;;;;;5026118;28;20147;-75
2022/09/08 08:54:57;;;;;;;5.75;3.35;;;19.70;99.90;;;;;;5024540;28;20120;-75
2022/09/08 08:57:43;;;;;;;7.78;4.57;;;19.80;99.90;;;;;;5030541;28;20040;-75
2022/09/08 09:00:12;;;;;;;6.72;3.90;;;19.90;99.90;;;;;;5033325;28;20037;-74
2022/09/08 09:02:57;;;;;;;6.70;4.30;;;19.90;99.90;;;;;;5038640;28;20055;-74
2022/09/08 09:05:41;;;;;;;6.03;3.88;;;19.70;99.90;;;;;;5032102;28;20029;-75
2022/09/08 09:08:48;;;;;;;9.45;4.72;;;19.80;99.90;;;;;;5031690;28;20033;-75
2022/09/08 09:11:36;;;;;;;8.25;4.10;;;19.90;99.90;;;;;;5041503;28;20517;-75
2022/09/08 09:14:21;;;;;;;7.43;4.10;;;19.90;99.90;;;;;;5028531;28;20135;-75
2022/09/08 09:16:59;;;;;;;4.82;3.50;;;20.00;99.90;;;;;;5029642;28;20033;-75
2022/09/08 09:19:43;;;;;;;7.35;3.78;;;19.90;99.90;;;;;;5034094;28;20063;-75
2022/09/08 09:22:25;;;;;;;5.25;2.75;;;20.20;99.90;;;;;;5033818;28;20026;-75
2022/09/08 09:25:16;;;;;;;5.68;3.30;;;20.30;99.90;;;;;;5029157;28;20036;-75
2022/09/08 09:27:45;;;;;;;5.43;3.03;;;20.20;99.90;;;;;;5035809;28;20041;-75
2022/09/08 09:30:22;;;;;;;4.82;2.72;;;20.30;99.90;;;;;;5027808;28;20036;-74
2022/09/08 09:33:24;;;;;;;6.57;3.22;;;20.40;99.90;;;;;;5035180;28;20112;-75
2022/09/08 09:36:50;;;;;;;6.13;3.47;;;20.60;99.90;;;;;;5025271;28;20068;-75
2022/09/08 09:39:54;;;;;;;5.07;2.90;;;20.90;99.90;;;;;;5030233;28;20055;-75
2022/09/08 09:42:32;;;;;;;6.95;3.63;;;21.90;99.90;;;;;;5032400;28;20033;-75
2022/09/08 09:45:07;;;;;;;6.10;3.60;;;22.40;99.90;;;;;;5032278;28;20021;-75
2022/09/08 09:48:00;;;;;;;5.85;3.65;;;22.60;99.90;;;;;;5035816;28;20025;-75
2022/09/08 09:50:31;;;;;;;8.18;3.13;;;22.60;99.90;;;;;;5037732;28;20030;-74
2022/09/08 09:52:57;;;;;;;6.50;3.90;;;22.70;99.90;;;;;;5038512;28;20033;-75
2022/09/08 09:55:41;;;;;;;7.30;4.22;;;22.30;99.90;;;;;;5038302;28;20029;-74
2022/09/08 09:58:23;;;;;;;7.28;3.63;;;21.80;99.90;;;;;;5045811;28;20021;-75
2022/09/08 10:01:06;;;;;;;9.10;4.07;;;21.50;99.90;;;;;;5044466;28;20028;-74
2022/09/08 10:04:00;;;;;;;7.25;3.88;;;21.60;99.90;;;;;;5032296;28;20519;-75
2022/09/08 10:06:47;;;;;;;5.93;3.77;;;21.60;99.90;;;;;;5044672;28;20021;-75
2022/09/08 10:09:37;;;;;;;5.43;3.42;;;21.80;99.90;;;;;;5032864;28;20282;-75
2022/09/08 10:12:41;;;;;;;10.55;3.00;;;21.90;99.90;;;;;;5043559;28;20147;-74
2022/09/08 10:16:01;;;;;;;7.95;3.95;;;21.80;99.90;;;;;;5044474;28;20548;-74
2022/09/08 10:19:00;;;;;;;4.85;3.22;;;22.20;99.90;;;;;;5025830;28;20115;-75
2022/09/08 10:21:58;;;;;;;5.97;3.25;;;22.30;99.90;;;;;;5025539;28;20383;-74
2022/09/08 10:24:45;;;;;;;5.28;3.58;;;22.40;99.90;;;;;;5039363;28;20041;-75
2022/09/08 10:27:37;;;;;;;5.65;2.80;;;22.50;99.90;;;;;;5044186;28;20040;-75
2022/09/08 10:30:43;;;;;;;6.50;3.22;;;22.50;99.90;;;;;;5024303;28;20131;-75
2022/09/08 10:33:23;;;;;;;5.63;3.20;;;22.80;99.90;;;;;;5033207;28;20042;-75
2022/09/08 10:35:55;;;;;;;5.18;2.80;;;23.20;99.90;;;;;;5030822;28;20519;-75
2022/09/08 10:38:29;;;;;;;4.93;2.53;;;23.00;99.90;;;;;;5025041;28;20528;-74
2022/09/08 10:40:55;;;;;;;4.85;2.83;;;22.80;99.90;;;;;;5041959;28;20490;-75
2022/09/08 10:43:49;;;;;;;6.00;3.30;;;22.60;99.90;;;;;;5024865;28;20071;-75
2022/09/08 10:46:45;;;;;;;8.27;2.85;;;22.50;99.90;;;;;;5024994;28;20125;-75
2022/09/08 10:49:29;;;;;;;4.22;2.40;;;22.30;99.90;;;;;;5030810;28;20036;-75
2022/09/08 10:51:58;;;;;;;;;;;22.30;99.90;;;;;;5045381;28;20391;-74
2022/09/08 10:55:02;;;;;;;3.83;1.90;;;22.60;99.90;;;;;;5044589;28;19939;-74
2022/09/08 10:57:48;;;;;;;6.50;2.23;;;22.50;99.90;;;;;;5044849;28;20033;-75
2022/09/08 11:00:23;;;;;;;4.50;2.85;;;22.80;99.90;;;;;;5029498;28;20300;-74
2022/09/08 11:03:00;;;;;;;;;;;22.70;99.90;;;;;;5026853;28;20025;-75
2022/09/08 11:05:37;;;;;;;4.57;2.42;;;22.80;99.90;;;;;;5044564;28;20003;-75
2022/09/08 11:08:12;;;;;;;4.57;2.65;;;22.70;99.90;;;;;;5043965;28;20044;-75
2022/09/08 11:10:51;;;;;;;5.93;2.40;;;22.90;99.90;;;;;;5028558;28;20060;-74
2022/09/08 11:13:35;;;;;;;5.78;2.30;;;22.80;99.90;;;;;;5024238;28;20044;-74
2022/09/08 11:16:15;;;;;;;6.35;1.90;;;22.80;99.90;;;;;;5029663;28;20121;-75
2022/09/08 11:18:44;;;;;;;4.85;2.20;;;23.20;99.90;;;;;;5039333;28;20036;-75
2022/09/08 11:21:30;;;;;;;4.97;2.38;;;23.40;99.90;;;;;;5042457;28;20040;-75
2022/09/08 11:24:15;;;;;;;4.13;2.45;;;23.40;99.90;;;;;;5044614;28;20029;-74
2022/09/08 11:27:09;;;;;;;4.32;2.35;;;23.40;99.90;;;;;;5042261;28;20035;-74
2022/09/08 11:29:37;;;;;;;3.53;2.05;;;23.00;99.90;;;;;;5024071;28;20051;-75
2022/09/08 11:32:15;;;;;;;6.97;2.63;;;22.80;99.90;;;;;;5024405;28;20037;-75
2022/09/08 11:34:46;;;;;;;5.55;2.88;;;22.90;99.90;;;;;;5032035;28;20037;-75
2022/09/08 11:37:27;;;;;;;4.57;3.15;;;22.90;99.90;;;;;;5046769;28;20510;-75
2022/09/08 11:40:21;;;;;;;4.07;2.40;;;23.10;99.90;;;;;;5042159;28;20072;-75
2022/09/08 11:43:12;;;;;;;4.38;2.17;;;23.20;99.90;;;;;;5029449;28;20037;-75
2022/09/08 11:45:47;;;;;;;3.85;2.50;;;23.00;99.90;;;;;;5025467;28;20474;-75
2022/09/08 11:48:36;;;;;;;4.72;2.55;;;23.00;99.90;;;;;;5023572;28;20028;-75
2022/09/08 11:51:11;;;;;;;3.78;1.77;;;23.00;99.90;;;;;;5028009;28;20025;-75
2022/09/08 11:53:46;;;;;;;8.48;2.47;;;23.10;99.90;;;;;;5024759;28;20054;-76
2022/09/08 11:56:20;;;;;;;3.80;2.22;;;23.30;99.90;;;;;;5023550;28;20087;-75
2022/09/08 11:58:50;;;;;;;6.45;2.38;;;23.50;99.90;;;;;;5024008;28;20049;-76
2022/09/08 12:01:24;;;;;;;3.85;2.33;;;23.60;99.90;;;;;;5025464;28;20052;-76
2022/09/08 12:04:20;;;;;;;4.57;2.53;;;23.90;99.90;;;;;;5023859;28;20034;-75
2022/09/08 12:07:34;;;;;;;7.97;2.78;;;23.80;99.90;;;;;;5023476;28;20032;-75
2022/09/08 12:10:30;;;;;;;4.20;2.55;;;24.10;99.90;;;;;;5023232;28;20045;-75
2022/09/08 12:13:07;;;;;;;3.28;2.40;;;24.30;99.90;;;;;;5038248;28;20116;-75
2022/09/08 12:16:14;;;;;;;4.93;2.25;;;24.40;99.90;;;;;;5032611;28;20048;-75
2022/09/08 12:19:00;;;;;;;7.18;2.20;;;24.30;99.90;;;;;;5024114;28;20391;-75
2022/09/08 12:21:26;;;;;;;4.85;2.78;;;24.20;99.90;;;;;;5022926;28;20029;-76
2022/09/08 12:24:09;;;;;;;3.70;2.00;;;24.30;99.90;;;;;;5023204;28;20044;-76
2022/09/08 12:26:59;;;;;;;7.88;2.60;;;24.10;99.90;;;;;;5028561;28;20033;-75
2022/09/08 12:30:02;;;;;;;4.78;2.40;;;24.10;99.90;;;;;;5028964;28;20028;-75
2022/09/08 12:32:41;;;;;;;4.63;2.47;;;24.40;99.90;;;;;;5027422;28;20083;-76
2022/09/08 12:35:35;;;;;;;4.90;2.80;;;24.20;99.90;;;;;;5033708;28;20149;-75
2022/09/08 12:38:22;;;;;;;4.15;2.65;;;24.30;99.90;;;;;;5031942;28;20136;-76
2022/09/08 12:41:13;;;;;;;6.63;2.42;;;24.50;99.90;;;;;;5038409;28;20029;-75
2022/09/08 12:43:43;;;;;;;4.40;2.22;;;24.30;99.90;;;;;;5026796;28;20030;-76
2022/09/08 12:46:31;;;;;;;3.97;2.05;;;24.30;99.90;;;;;;5026666;28;20072;-76
2022/09/08 12:49:25;;;;;;;17.67;4.28;;;24.70;99.90;;;;;;5037123;28;20025;-75
2022/09/08 12:52:00;;;;;;;23.10;6.35;;;24.60;99.90;;;;;;5045527;28;20689;-75
2022/09/08 12:54:45;;;;;;;4.82;2.22;;;24.50;99.90;;;;;;5049020;28;20473;-74
2022/09/08 12:57:13;;;;;;;6.43;2.08;;;24.50;99.90;;;;;;5031254;28;20036;-74
2022/09/08 13:00:02;;;;;;;5.32;2.10;;;24.70;99.90;;;;;;5032865;28;20029;-74
2022/09/08 13:02:41;;;;;;;3.95;2.10;;;24.70;99.90;;;;;;5038408;28;20024;-74
2022/09/08 13:05:51;;;;;;;4.75;2.15;;;24.80;99.90;;;;;;5046796;28;20033;-74
2022/09/08 13:08:17;;;;;;;3.58;2.13;;;24.80;99.90;;;;;;5027582;28;20038;-74
2022/09/08 13:10:46;;;;;;;5.95;2.25;;;25.00;99.90;;;;;;5035907;28;20060;-74
2022/09/08 13:13:42;;;;;;;4.90;2.15;;;25.30;99.90;;;;;;5036295;28;20033;-74
2022/09/08 13:16:23;;;;;;;3.72;1.98;;;25.10;99.90;;;;;;5038603;28;20060;-74
2022/09/08 13:19:20;;;;;;;3.55;1.98;;;25.00;99.90;;;;;;5049246;28;20479;-74
2022/09/08 13:22:17;;;;;;;4.85;1.95;;;25.00;99.90;;;;;;5038947;28;20044;-74
2022/09/08 13:25:05;;;;;;;4.25;2.28;;;24.80;99.90;;;;;;5029133;28;20408;-74
2022/09/08 13:27:55;;;;;;;4.03;1.90;;;24.60;99.90;;;;;;5031676;28;20060;-74
2022/09/08 13:30:36;;;;;;;4.32;1.88;;;24.80;99.90;;;;;;5038507;28;20029;-74
2022/09/08 13:33:21;;;;;;;4.70;1.95;;;24.50;99.90;;;;;;5048346;28;20029;-74
2022/09/08 13:36:03;;;;;;;5.70;2.35;;;24.60;99.90;;;;;;5035432;28;20486;-74